Wapello, Idaho
Current Conditions -  °F | °C
As of 10:53 PM on Thursday 27 Nov 2014 (Local Time) from KIDA Reporting Station
Clear Clear  
Wind Chill: 37°   Ceiling: Unl
Heat Index: 41°   Visibility: 10mi
Dew Point: 31°   Wind: 6mph
Humidity: 67%   Direction: 210°SSW
Pressure: 30.05"   Gusts: NA
Location:  43.2718°N, 112.405°W
Report Text: KIDA 280553Z AUTO 21005KT 10SM CLR 05/M01 A3005 RMK AO2 SLP175 T00501006 10117 20044 58007
Loading
Personal Weather Stations






























Interactive Weather Map New forecast layout! Learn more

10-Day Weather Forecast

Advertisements
Track Severe Weather on mobile